createdAt,value
2017-12-30T00:02:09.141Z,1.20
2017-12-30T00:04:35.570Z,1.30
2017-12-30T00:07:01.996Z,1.30
2017-12-30T00:09:28.376Z,1.30
2017-12-30T00:11:56.733Z,1.20
2017-12-30T00:14:23.141Z,1.20
2017-12-30T00:16:49.509Z,1.10
2017-12-30T00:19:15.941Z,1.10
2017-12-30T00:21:42.320Z,1.20
2017-12-30T00:24:09.480Z,1.30
2017-12-30T00:26:35.881Z,1.30
2017-12-30T00:29:02.297Z,1.30
2017-12-30T00:31:28.700Z,1.40
2017-12-30T00:33:55.446Z,1.40
2017-12-30T00:36:21.872Z,1.50
2017-12-30T00:38:48.289Z,1.50
2017-12-30T00:41:14.681Z,1.50
2017-12-30T00:43:41.136Z,1.60
2017-12-30T00:46:08.399Z,1.60
2017-12-30T00:48:34.808Z,1.60
2017-12-30T00:51:01.949Z,1.70
2017-12-30T00:53:28.329Z,1.60
2017-12-30T00:55:54.766Z,1.70
2017-12-30T00:58:21.194Z,1.70
2017-12-30T01:00:47.610Z,1.70
2017-12-30T01:03:14.134Z,1.80
2017-12-30T01:05:41.268Z,1.80
2017-12-30T01:08:08.524Z,1.90
2017-12-30T01:10:35.701Z,1.90
2017-12-30T01:13:02.108Z,1.90
2017-12-30T01:15:29.249Z,2.00
2017-12-30T01:17:56.361Z,2.00
2017-12-30T01:20:22.813Z,2.00
2017-12-30T01:22:49.196Z,2.00
2017-12-30T01:25:15.657Z,2.00
2017-12-30T01:27:42.069Z,2.10
2017-12-30T01:30:08.505Z,2.10
2017-12-30T01:32:34.910Z,2.10
2017-12-30T01:35:01.314Z,2.00
2017-12-30T01:37:34.763Z,2.10
2017-12-30T01:40:01.176Z,2.10
2017-12-30T01:42:27.577Z,2.10
2017-12-30T01:44:53.948Z,2.10
2017-12-30T01:47:20.357Z,2.20
2017-12-30T01:49:47.508Z,2.20
2017-12-30T01:52:14.713Z,2.20
2017-12-30T01:54:41.212Z,2.20
2017-12-30T01:57:07.578Z,2.20
2017-12-30T01:59:34.001Z,2.30
2017-12-30T02:02:00.456Z,2.20
2017-12-30T02:04:26.849Z,2.30
2017-12-30T02:06:53.264Z,2.30
2017-12-30T02:09:19.737Z,2.20
2017-12-30T02:11:46.132Z,2.30
2017-12-30T02:14:12.558Z,2.30
2017-12-30T02:16:46.017Z,2.30
2017-12-30T02:19:12.445Z,2.40
2017-12-30T02:21:38.836Z,2.30
2017-12-30T02:24:05.308Z,2.30
2017-12-30T02:26:31.785Z,2.30
2017-12-30T02:28:58.199Z,2.30
2017-12-30T02:31:25.349Z,2.30
2017-12-30T02:33:52.516Z,2.30
2017-12-30T02:36:19.084Z,2.30
2017-12-30T02:38:45.529Z,2.30
2017-12-30T02:41:11.912Z,2.30
2017-12-30T02:43:38.353Z,2.30
2017-12-30T02:46:11.782Z,2.40
2017-12-30T02:48:38.193Z,2.40
2017-12-30T02:51:04.556Z,2.30
2017-12-30T02:53:30.944Z,2.40
2017-12-30T02:55:57.336Z,2.40
2017-12-30T02:58:24.496Z,2.40
2017-12-30T03:00:51.649Z,2.40
2017-12-30T03:03:18.784Z,2.40
2017-12-30T03:05:45.170Z,2.40
2017-12-30T03:08:11.564Z,2.40
2017-12-30T03:10:38.686Z,2.30
2017-12-30T03:13:05.122Z,2.30
2017-12-30T03:15:31.521Z,2.20
2017-12-30T03:17:57.960Z,2.20
2017-12-30T03:20:24.377Z,2.20
2017-12-30T03:22:50.782Z,2.10
2017-12-30T03:25:17.202Z,2.10
2017-12-30T03:27:44.317Z,2.10
2017-12-30T03:30:10.722Z,2.10
2017-12-30T03:32:37.204Z,2.10
2017-12-30T03:35:04.348Z,2.00
2017-12-30T03:37:30.748Z,2.00
2017-12-30T03:39:57.145Z,2.00
2017-12-30T03:42:23.537Z,2.00
2017-12-30T03:44:49.957Z,2.00
2017-12-30T03:47:16.333Z,2.00
2017-12-30T03:49:42.798Z,2.00
2017-12-30T03:52:09.187Z,1.90
2017-12-30T03:54:36.292Z,1.90
2017-12-30T03:57:02.723Z,1.90
2017-12-30T03:59:29.122Z,1.90
2017-12-30T04:01:55.533Z,1.90
2017-12-30T04:04:22.657Z,1.70
2017-12-30T04:06:49.128Z,1.70
2017-12-30T04:09:15.561Z,1.70
2017-12-30T04:11:41.949Z,1.60
2017-12-30T04:14:09.273Z,1.50
2017-12-30T04:16:35.673Z,1.50
2017-12-30T04:19:02.170Z,1.40
2017-12-30T04:21:28.596Z,1.40
2017-12-30T04:23:55.105Z,1.40
2017-12-30T04:26:21.507Z,1.40
2017-12-30T04:28:47.898Z,1.40
2017-12-30T04:31:14.286Z,1.50
2017-12-30T04:33:40.703Z,1.30
2017-12-30T04:36:07.088Z,1.30
2017-12-30T04:38:33.513Z,1.20
2017-12-30T04:40:59.892Z,1.10
2017-12-30T04:43:26.280Z,1.10
2017-12-30T04:45:52.716Z,1.10
2017-12-30T04:48:19.177Z,1.00
2017-12-30T04:50:46.316Z,0.90
2017-12-30T04:53:13.487Z,0.90
2017-12-30T04:55:39.881Z,0.90
2017-12-30T04:58:06.315Z,1.00
2017-12-30T05:00:32.701Z,1.10
2017-12-30T05:02:59.119Z,1.10
2017-12-30T05:05:25.721Z,1.10
2017-12-30T05:07:52.169Z,1.10
2017-12-30T05:10:19.272Z,0.90
2017-12-30T05:12:45.690Z,0.80
2017-12-30T05:15:12.216Z,1.00
2017-12-30T05:17:38.636Z,1.10
2017-12-30T05:20:05.051Z,1.30
2017-12-30T05:22:32.233Z,1.70
2017-12-30T05:24:58.700Z,1.70
2017-12-30T05:27:25.116Z,1.80
2017-12-30T05:29:51.524Z,1.80
2017-12-30T05:32:18.061Z,1.90
2017-12-30T05:34:44.444Z,2.00
2017-12-30T05:37:10.892Z,2.00
2017-12-30T05:39:37.300Z,2.00
2017-12-30T05:42:03.759Z,2.10
2017-12-30T05:44:30.895Z,2.10
2017-12-30T05:46:58.049Z,2.20
2017-12-30T05:49:25.285Z,2.20
2017-12-30T05:51:51.653Z,2.20
2017-12-30T05:54:18.041Z,2.30
2017-12-30T05:56:44.477Z,2.40
2017-12-30T05:59:11.642Z,2.60
2017-12-30T06:01:38.872Z,2.70
2017-12-30T06:04:05.292Z,2.50
2017-12-30T06:06:31.745Z,2.70
2017-12-30T06:08:59.060Z,2.60
2017-12-30T06:11:25.512Z,2.60
2017-12-30T06:13:52.697Z,2.60
2017-12-30T06:16:19.816Z,2.60
2017-12-30T06:18:46.197Z,2.60
2017-12-30T06:21:12.683Z,2.60
2017-12-30T06:23:39.067Z,2.60
2017-12-30T06:26:05.521Z,2.60
2017-12-30T06:28:31.996Z,2.60
2017-12-30T06:30:59.213Z,2.60
2017-12-30T06:33:25.563Z,2.60
2017-12-30T06:35:51.959Z,2.60
2017-12-30T06:38:18.437Z,2.70
2017-12-30T06:40:44.845Z,2.60
2017-12-30T06:43:11.266Z,2.60
2017-12-30T06:45:38.468Z,2.70
2017-12-30T06:48:04.896Z,2.60
2017-12-30T06:50:32.084Z,2.70
2017-12-30T06:52:58.512Z,2.60
2017-12-30T06:55:24.934Z,2.70
2017-12-30T06:57:51.359Z,2.60
2017-12-30T07:00:17.781Z,2.60
2017-12-30T07:02:44.962Z,2.60
2017-12-30T07:05:11.380Z,2.60
2017-12-30T07:07:37.888Z,2.60
2017-12-30T07:10:05.017Z,2.60
2017-12-30T07:12:31.438Z,2.50
2017-12-30T07:14:57.868Z,2.60
2017-12-30T07:17:24.405Z,2.70
2017-12-30T07:19:50.807Z,2.70
2017-12-30T07:22:17.233Z,2.70
2017-12-30T07:24:43.696Z,2.70
2017-12-30T07:27:10.143Z,2.70
2017-12-30T07:29:36.576Z,2.80
2017-12-30T07:32:03.025Z,2.60
2017-12-30T07:34:30.244Z,2.70
2017-12-30T07:36:56.658Z,2.70
2017-12-30T07:39:23.101Z,2.70
2017-12-30T07:41:49.552Z,2.70
2017-12-30T07:44:15.949Z,2.70
2017-12-30T07:46:42.324Z,2.60
2017-12-30T07:49:08.834Z,2.60
2017-12-30T07:51:35.232Z,2.60
2017-12-30T07:54:01.813Z,2.60
2017-12-30T07:56:28.310Z,2.60
2017-12-30T07:58:54.676Z,2.70
2017-12-30T08:01:21.103Z,2.70
2017-12-30T08:03:47.556Z,2.70
2017-12-30T08:06:13.938Z,2.70
2017-12-30T08:08:40.323Z,2.70
2017-12-30T08:11:07.527Z,2.70
2017-12-30T08:13:33.941Z,2.70
2017-12-30T08:16:00.340Z,2.70
2017-12-30T08:18:27.515Z,2.60
2017-12-30T08:20:54.105Z,2.60
2017-12-30T08:23:20.493Z,2.60
2017-12-30T08:25:46.905Z,2.60
2017-12-30T08:28:13.278Z,2.60
2017-12-30T08:30:39.750Z,2.60
2017-12-30T08:33:06.950Z,2.60
2017-12-30T08:35:33.399Z,2.60
2017-12-30T08:37:59.821Z,2.60
2017-12-30T08:40:26.228Z,2.60
2017-12-30T08:42:52.726Z,2.60
2017-12-30T08:45:19.100Z,2.60
2017-12-30T08:47:45.641Z,2.60
2017-12-30T08:50:18.927Z,2.60
2017-12-30T08:52:45.464Z,2.60
2017-12-30T08:55:11.909Z,2.60
2017-12-30T08:57:38.389Z,2.50
2017-12-30T09:00:05.674Z,2.60
2017-12-30T09:02:32.482Z,2.60
2017-12-30T09:04:58.898Z,2.60
2017-12-30T09:07:25.285Z,2.70
2017-12-30T09:09:51.672Z,2.60
2017-12-30T09:12:18.076Z,2.60
2017-12-30T09:14:44.514Z,2.60
2017-12-30T09:17:10.961Z,2.60
2017-12-30T09:19:37.487Z,2.60
2017-12-30T09:22:03.834Z,2.60
2017-12-30T09:24:30.328Z,2.60
2017-12-30T09:26:56.758Z,2.70
2017-12-30T09:29:23.128Z,2.70
2017-12-30T09:31:49.595Z,2.70
2017-12-30T09:34:16.019Z,2.70
2017-12-30T09:36:43.239Z,2.80
2017-12-30T09:39:09.667Z,2.80
2017-12-30T09:41:36.068Z,2.80
2017-12-30T09:44:02.540Z,2.80
2017-12-30T09:46:28.978Z,2.80
2017-12-30T09:48:55.456Z,2.80
2017-12-30T09:51:21.864Z,2.80
2017-12-30T09:53:48.254Z,2.90
2017-12-30T09:56:14.812Z,2.90
2017-12-30T09:58:42.065Z,3.00
2017-12-30T10:01:09.378Z,3.00
2017-12-30T10:03:35.785Z,3.00
2017-12-30T10:06:02.220Z,3.10
2017-12-30T10:08:28.714Z,3.10
2017-12-30T10:10:55.861Z,3.10
2017-12-30T10:13:22.328Z,3.10
2017-12-30T10:15:48.718Z,3.10
2017-12-30T10:18:15.196Z,3.20
2017-12-30T10:20:41.607Z,3.20
2017-12-30T10:23:08.915Z,3.30
2017-12-30T10:25:35.978Z,3.30
2017-12-30T10:28:02.389Z,3.30
2017-12-30T10:30:28.853Z,3.40
2017-12-30T10:32:56.077Z,3.50
2017-12-30T10:35:22.477Z,3.40
2017-12-30T10:37:48.905Z,3.40
2017-12-30T10:40:15.334Z,3.50
2017-12-30T10:42:41.780Z,3.50
2017-12-30T10:45:08.180Z,3.40
2017-12-30T10:47:35.364Z,3.50
2017-12-30T10:50:01.784Z,3.50
2017-12-30T10:52:28.365Z,3.50
2017-12-30T10:54:54.897Z,3.60
2017-12-30T10:57:21.803Z,3.70
2017-12-30T10:59:48.263Z,3.70
2017-12-30T11:02:15.446Z,3.80
2017-12-30T11:04:42.626Z,3.90
2017-12-30T11:07:09.081Z,3.90
2017-12-30T11:09:35.482Z,3.90
2017-12-30T11:12:01.976Z,4.00
2017-12-30T11:14:28.388Z,4.10
2017-12-30T11:16:54.801Z,4.20
2017-12-30T11:19:21.282Z,4.30
2017-12-30T11:21:47.807Z,4.30
2017-12-30T11:24:14.296Z,4.30
2017-12-30T11:26:40.745Z,4.20
2017-12-30T11:29:07.251Z,4.10
2017-12-30T11:31:33.672Z,4.20
2017-12-30T11:34:00.199Z,4.10
2017-12-30T11:36:27.401Z,4.30
2017-12-30T11:38:53.820Z,4.30
2017-12-30T11:41:20.272Z,4.50
2017-12-30T11:43:46.739Z,4.70
2017-12-30T11:46:14.052Z,5.00
2017-12-30T11:48:40.476Z,5.00
2017-12-30T11:51:06.872Z,5.00
2017-12-30T11:53:34.061Z,5.00
2017-12-30T11:56:00.462Z,5.00
2017-12-30T11:58:26.934Z,5.00
2017-12-30T12:00:55.017Z,5.10
2017-12-30T12:03:21.505Z,5.10
2017-12-30T12:05:47.935Z,5.20
2017-12-30T12:08:14.371Z,5.20
2017-12-30T12:10:40.860Z,5.30
2017-12-30T12:13:07.308Z,5.30
2017-12-30T12:15:34.458Z,5.30
2017-12-30T12:18:01.642Z,5.30
2017-12-30T12:20:28.094Z,5.30
2017-12-30T12:22:54.550Z,5.30
2017-12-30T12:25:21.181Z,5.30
2017-12-30T12:27:47.695Z,5.40
2017-12-30T12:30:14.141Z,5.40
2017-12-30T12:32:40.582Z,5.40
2017-12-30T12:35:07.127Z,5.40
2017-12-30T12:37:33.565Z,5.50
2017-12-30T12:40:00.729Z,5.70
2017-12-30T12:42:27.915Z,5.90
2017-12-30T12:44:54.409Z,5.80
2017-12-30T12:47:20.928Z,5.90
2017-12-30T12:49:47.354Z,5.90
2017-12-30T12:52:13.946Z,6.00
2017-12-30T12:54:40.426Z,6.00
2017-12-30T12:57:06.829Z,6.00
2017-12-30T12:59:33.216Z,6.10
2017-12-30T13:02:00.378Z,6.20
2017-12-30T13:04:27.921Z,6.10
2017-12-30T13:06:54.380Z,6.20
2017-12-30T13:09:20.855Z,6.20
2017-12-30T13:11:47.340Z,6.20
2017-12-30T13:14:13.844Z,6.30
2017-12-30T13:16:41.061Z,6.50
2017-12-30T13:19:07.673Z,6.50
2017-12-30T13:21:34.067Z,6.60
2017-12-30T13:24:08.203Z,6.70
2017-12-30T13:26:34.641Z,6.70
2017-12-30T13:29:01.341Z,6.70
2017-12-30T13:31:28.691Z,6.70
2017-12-30T13:34:02.010Z,6.70
2017-12-30T13:36:28.724Z,6.80
2017-12-30T13:38:55.170Z,6.80
2017-12-30T13:41:22.372Z,6.90
2017-12-30T13:43:48.757Z,6.90
2017-12-30T13:46:15.940Z,7.10
2017-12-30T13:48:42.364Z,7.10
2017-12-30T13:51:08.793Z,7.20
2017-12-30T13:53:35.243Z,7.30
2017-12-30T13:56:01.730Z,7.30
2017-12-30T13:58:28.968Z,7.50
2017-12-30T14:00:55.395Z,7.40
2017-12-30T14:03:21.798Z,7.50
2017-12-30T14:05:48.353Z,7.50
2017-12-30T14:08:14.830Z,7.50
2017-12-30T14:10:41.321Z,7.50
2017-12-30T14:13:07.762Z,7.70
2017-12-30T14:15:34.165Z,7.70
2017-12-30T14:18:00.624Z,7.60
2017-12-30T14:20:27.188Z,7.70
2017-12-30T14:22:54.380Z,7.80
2017-12-30T14:25:20.815Z,7.80
2017-12-30T14:27:47.372Z,7.90
2017-12-30T14:30:13.797Z,8.00
2017-12-30T14:32:40.244Z,8.00
2017-12-30T14:38:02.227Z,8.20
2017-12-30T14:40:29.428Z,8.00
2017-12-30T14:42:57.363Z,8.10
2017-12-30T14:45:25.821Z,8.20
2017-12-30T14:47:52.236Z,8.20
2017-12-30T14:50:22.603Z,8.10
2017-12-30T14:52:49.085Z,8.10
2017-12-30T14:55:15.551Z,8.00
2017-12-30T14:57:42.054Z,8.10
2017-12-30T15:00:09.284Z,8.00
2017-12-30T15:02:35.738Z,8.00
2017-12-30T15:05:02.901Z,8.00
2017-12-30T15:07:30.125Z,8.00
2017-12-30T15:09:56.541Z,8.00
2017-12-30T15:12:22.957Z,8.10
2017-12-30T15:14:49.438Z,8.10
2017-12-30T15:17:16.628Z,8.20
2017-12-30T15:19:43.078Z,8.20
2017-12-30T15:22:09.486Z,8.30
2017-12-30T15:24:35.964Z,8.30
2017-12-30T15:27:02.457Z,8.30
2017-12-30T15:29:28.869Z,8.40
2017-12-30T15:31:55.327Z,8.40
2017-12-30T15:34:21.921Z,8.50
2017-12-30T15:36:48.500Z,8.50
2017-12-30T15:39:14.940Z,8.60
2017-12-30T15:41:41.564Z,8.60
2017-12-30T15:44:08.047Z,8.70
2017-12-30T15:46:34.612Z,8.70
2017-12-30T15:49:01.067Z,8.60
2017-12-30T15:51:27.509Z,8.70
2017-12-30T15:53:54.000Z,8.70
2017-12-30T15:56:21.222Z,8.80
2017-12-30T15:58:47.829Z,8.80
2017-12-30T16:01:14.248Z,8.90
2017-12-30T16:03:40.687Z,8.90
2017-12-30T16:06:07.128Z,8.80
2017-12-30T16:08:33.563Z,8.80
2017-12-30T16:11:00.010Z,8.90
2017-12-30T16:13:26.424Z,9.00
2017-12-30T16:15:52.865Z,9.00
2017-12-30T16:18:19.281Z,9.20
2017-12-30T16:20:45.765Z,9.30
2017-12-30T16:23:12.195Z,9.30
2017-12-30T16:25:38.627Z,9.40
2017-12-30T16:28:05.821Z,9.60
2017-12-30T16:30:32.311Z,9.60
2017-12-30T16:32:58.710Z,9.70
2017-12-30T16:35:25.161Z,9.70
2017-12-30T16:37:51.681Z,9.80
2017-12-30T16:40:18.119Z,9.90
2017-12-30T16:42:44.525Z,9.90
2017-12-30T16:45:11.773Z,9.90
2017-12-30T16:47:38.449Z,9.90
2017-12-30T16:50:05.645Z,10.00
2017-12-30T16:52:32.630Z,9.90
2017-12-30T16:54:59.824Z,10.00
2017-12-30T16:57:26.999Z,10.00
2017-12-30T16:59:53.476Z,10.00
2017-12-30T17:02:20.016Z,10.10
2017-12-30T17:04:46.461Z,10.10
2017-12-30T17:07:12.936Z,10.10
2017-12-30T17:09:39.414Z,10.20
2017-12-30T17:12:06.835Z,10.20
2017-12-30T17:14:33.293Z,10.10
2017-12-30T17:16:59.760Z,10.20
2017-12-30T17:19:26.909Z,10.20
2017-12-30T17:21:54.078Z,10.20
2017-12-30T17:24:20.556Z,10.20
2017-12-30T17:26:48.577Z,10.40
2017-12-30T17:29:15.044Z,10.40
2017-12-30T17:31:41.468Z,10.50
2017-12-30T17:34:07.989Z,10.50
2017-12-30T17:36:34.543Z,10.40
2017-12-30T17:39:00.929Z,10.40
2017-12-30T17:41:28.117Z,10.40
2017-12-30T17:43:54.558Z,10.40
2017-12-30T17:46:21.472Z,10.50
2017-12-30T17:48:47.900Z,10.50
2017-12-30T17:51:14.349Z,10.40
2017-12-30T17:53:40.744Z,10.40
2017-12-30T17:56:07.196Z,10.40
2017-12-30T17:58:33.649Z,10.40
2017-12-30T18:01:00.132Z,10.40
2017-12-30T18:03:26.860Z,10.50
2017-12-30T18:05:53.367Z,10.50
2017-12-30T18:08:19.750Z,10.60
2017-12-30T18:10:48.292Z,10.70
2017-12-30T18:13:14.727Z,10.70
2017-12-30T18:15:41.188Z,10.70
2017-12-30T18:18:07.588Z,10.70
2017-12-30T18:20:33.981Z,10.70
2017-12-30T18:23:00.417Z,10.70
2017-12-30T18:25:26.844Z,10.70
2017-12-30T18:27:53.294Z,10.70
2017-12-30T18:30:19.800Z,10.70
2017-12-30T18:32:46.961Z,10.80
2017-12-30T18:35:13.393Z,10.70
2017-12-30T18:37:39.804Z,10.80
2017-12-30T18:40:06.993Z,10.80
2017-12-30T18:42:33.416Z,10.80
2017-12-30T18:44:59.820Z,10.80
2017-12-30T18:47:26.976Z,10.80
2017-12-30T18:49:55.100Z,10.70
2017-12-30T18:52:21.545Z,10.70
2017-12-30T18:54:48.112Z,10.70
2017-12-30T18:57:15.273Z,10.50
2017-12-30T18:59:42.564Z,10.40
2017-12-30T19:02:09.026Z,10.40
2017-12-30T19:04:35.453Z,10.30
2017-12-30T19:07:02.105Z,10.30
2017-12-30T19:09:29.286Z,10.30
2017-12-30T19:11:55.751Z,10.20
2017-12-30T19:14:22.313Z,10.20
2017-12-30T19:16:48.748Z,10.20
2017-12-30T19:19:15.246Z,10.10
2017-12-30T19:21:41.693Z,10.10
2017-12-30T19:24:08.125Z,10.10
2017-12-30T19:26:34.631Z,10.00
2017-12-30T19:29:01.159Z,10.10
2017-12-30T19:31:27.573Z,10.10
2017-12-30T19:33:54.790Z,10.20
2017-12-30T19:36:21.212Z,10.20
2017-12-30T19:38:47.750Z,10.30
2017-12-30T19:41:14.172Z,10.20
2017-12-30T19:43:40.633Z,10.30
2017-12-30T19:46:07.079Z,10.20
2017-12-30T19:48:34.256Z,10.30
2017-12-30T19:51:00.705Z,10.20
2017-12-30T19:53:27.252Z,10.20
2017-12-30T19:55:53.739Z,10.20
2017-12-30T19:58:21.011Z,10.20
2017-12-30T20:00:47.487Z,10.10
2017-12-30T20:03:13.948Z,10.20
2017-12-30T20:05:41.130Z,10.20
2017-12-30T20:08:07.648Z,10.10
2017-12-30T20:10:34.102Z,10.20
2017-12-30T20:13:00.571Z,10.20
2017-12-30T20:15:27.058Z,10.20
2017-12-30T20:17:53.511Z,10.20
2017-12-30T20:20:20.027Z,10.10
2017-12-30T20:22:46.485Z,10.20
2017-12-30T20:25:12.933Z,10.20
2017-12-30T20:27:39.532Z,10.20
2017-12-30T20:30:06.084Z,10.20
2017-12-30T20:32:32.537Z,10.20
2017-12-30T20:34:59.024Z,10.20
2017-12-30T20:37:25.501Z,10.30
2017-12-30T20:39:51.935Z,10.30
2017-12-30T20:42:18.361Z,10.30
2017-12-30T20:44:44.768Z,10.30
2017-12-30T20:47:11.218Z,10.40
2017-12-30T20:49:37.735Z,10.30
2017-12-30T20:52:04.299Z,10.40
2017-12-30T20:54:30.819Z,10.40
2017-12-30T20:56:57.341Z,10.40
2017-12-30T20:59:23.822Z,10.40
2017-12-30T21:01:50.290Z,10.40
2017-12-30T21:04:18.030Z,10.40
2017-12-30T21:06:45.197Z,10.40
2017-12-30T21:09:11.661Z,10.40
2017-12-30T21:11:38.295Z,10.40
2017-12-30T21:14:04.777Z,10.40
2017-12-30T21:16:31.282Z,10.50
2017-12-30T21:19:04.768Z,10.60
2017-12-30T21:21:31.295Z,10.60
2017-12-30T21:23:57.785Z,10.60
2017-12-30T21:26:25.095Z,10.60
2017-12-30T21:28:52.412Z,10.60
2017-12-30T21:31:18.920Z,10.60
2017-12-30T21:33:47.014Z,10.60
2017-12-30T21:36:13.541Z,10.60
2017-12-30T21:38:39.984Z,10.60
2017-12-30T21:41:06.446Z,10.60
2017-12-30T21:43:32.955Z,10.70
2017-12-30T21:45:59.478Z,10.70
2017-12-30T21:48:25.968Z,10.70
2017-12-30T21:50:52.396Z,10.70
2017-12-30T21:53:18.918Z,10.80
2017-12-30T21:55:45.436Z,10.80
2017-12-30T21:58:11.874Z,10.70
2017-12-30T22:00:38.434Z,10.70
2017-12-30T22:03:04.861Z,10.70
2017-12-30T22:05:31.292Z,10.70
2017-12-30T22:07:57.832Z,10.80
2017-12-30T22:10:24.261Z,10.70
2017-12-30T22:12:50.712Z,10.70
2017-12-30T22:15:17.277Z,10.70
2017-12-30T22:17:44.489Z,10.70
2017-12-30T22:20:10.890Z,10.70
2017-12-30T22:22:37.308Z,10.70
2017-12-30T22:25:03.847Z,10.70
2017-12-30T22:27:30.336Z,10.80
2017-12-30T22:29:56.749Z,10.80
2017-12-30T22:32:23.306Z,10.70
2017-12-30T22:34:49.722Z,10.80
2017-12-30T22:37:16.150Z,10.70
2017-12-30T22:39:42.740Z,10.70
2017-12-30T22:42:09.179Z,10.70
2017-12-30T22:44:35.607Z,10.70
2017-12-30T22:47:02.045Z,10.70
2017-12-30T22:49:28.513Z,10.70
2017-12-30T22:51:54.932Z,10.80
2017-12-30T22:54:21.504Z,10.80
2017-12-30T22:56:49.713Z,10.70
2017-12-30T22:59:16.249Z,10.70
2017-12-30T23:01:42.933Z,10.70
2017-12-30T23:04:09.487Z,10.70
2017-12-30T23:06:36.657Z,10.70
2017-12-30T23:09:03.313Z,10.70
2017-12-30T23:11:29.757Z,10.80
2017-12-30T23:13:56.306Z,10.80
2017-12-30T23:16:23.588Z,10.80
2017-12-30T23:18:50.340Z,10.80
2017-12-30T23:21:16.931Z,10.80
2017-12-30T23:23:43.421Z,10.80
2017-12-30T23:26:09.897Z,10.80
2017-12-30T23:28:36.336Z,10.80
2017-12-30T23:31:02.773Z,10.80
2017-12-30T23:33:29.205Z,10.80
2017-12-30T23:35:55.732Z,10.80
2017-12-30T23:38:22.181Z,10.80
2017-12-30T23:40:48.720Z,10.90
2017-12-30T23:43:15.124Z,10.90
2017-12-30T23:45:41.566Z,10.80
2017-12-30T23:48:07.958Z,10.90
2017-12-30T23:50:34.410Z,10.90
2017-12-30T23:53:00.863Z,10.90
2017-12-30T23:55:27.324Z,10.90
2017-12-30T23:57:53.719Z,10.90
